Time;durP1;ratioP1;P1;durP2;ratioP2;P2;SDS_P1;SDS_P2;PMS_P1;PMS_P2;Temp;Humidity;BMP_temperature;BMP_pressure;BME280_temperature;BME280_humidity;BME280_pressure;Samples;Min_cycle;Max_cycle;Signal;HPM_P1;HPM_P2
2023/10/19 00:02:10;;;;;;;227.43;66.90;;;;;;;;;;4973409;28;20173;-48
2023/10/19 00:04:37;;;;;;;221.93;60.60;;;;;;;;;;4972971;28;20289;-48
2023/10/19 00:07:04;;;;;;;222.20;60.97;;;;;;;;;;4973227;28;20717;-48
2023/10/19 00:09:36;;;;;;;222.05;61.40;;;;;;;;;;4973305;28;20258;-48
2023/10/19 00:12:03;;;;;;;224.43;62.97;;;;;;;;;;4973315;28;20181;-48
2023/10/19 00:14:29;;;;;;;225.20;61.05;;;;;;;;;;4972641;28;20287;-48
2023/10/19 00:17:00;;;;;;;223.48;59.80;;;;;;;;;;4973266;28;20169;-48
2023/10/19 00:19:28;;;;;;;227.15;65.05;;;;;;;;;;4970710;28;20179;-47
2023/10/19 00:22:08;;;;;;;224.80;62.95;;;;;;;;;;4973071;28;20709;-48
2023/10/19 00:24:34;;;;;;;225.05;61.42;;;;;;;;;;4972665;28;20601;-48
2023/10/19 00:27:06;;;;;;;226.75;65.53;;;;;;;;;;4973089;28;20181;-48
2023/10/19 00:29:40;;;;;;;226.70;62.80;;;;;;;;;;4973044;28;20189;-48
2023/10/19 00:32:12;;;;;;;223.85;63.80;;;;;;;;;;4972997;28;20256;-48
2023/10/19 00:34:38;;;;;;;225.48;62.80;;;;;;;;;;4972769;28;20211;-48
2023/10/19 00:37:07;;;;;;;227.23;65.57;;;;;;;;;;4973142;28;20167;-47
2023/10/19 00:39:43;;;;;;;224.70;59.55;;;;;;;;;;4973170;28;20396;-48
2023/10/19 00:42:09;;;;;;;228.32;65.35;;;;;;;;;;4972947;28;20164;-48
2023/10/19 00:44:38;;;;;;;225.35;59.70;;;;;;;;;;4972634;28;20251;-48
2023/10/19 00:47:07;;;;;;;225.75;60.53;;;;;;;;;;4972992;28;20180;-48
2023/10/19 00:49:33;;;;;;;225.48;61.92;;;;;;;;;;4972987;28;20235;-48
2023/10/19 00:52:19;;;;;;;226.35;61.83;;;;;;;;;;4973271;28;20173;-49
2023/10/19 00:57:13;;;;;;;225.23;62.22;;;;;;;;;;4973179;28;20261;-48
2023/10/19 00:59:43;;;;;;;226.55;61.60;;;;;;;;;;4972937;28;20175;-48
2023/10/19 01:02:28;;;;;;;227.20;62.47;;;;;;;;;;4972394;28;20218;-47
2023/10/19 01:05:07;;;;;;;225.93;62.85;;;;;;;;;;4972056;28;20246;-49
2023/10/19 01:07:38;;;;;;;226.98;62.83;;;;;;;;;;4972731;28;20424;-48
2023/10/19 01:10:20;;;;;;;223.57;58.25;;;;;;;;;;4972867;28;20180;-48
2023/10/19 01:12:46;;;;;;;229.10;62.42;;;;;;;;;;4972601;28;20713;-49
2023/10/19 01:15:16;;;;;;;225.50;62.80;;;;;;;;;;4972627;28;20616;-48
2023/10/19 01:17:43;;;;;;;224.02;58.40;;;;;;;;;;4972638;28;20164;-48
2023/10/19 01:20:18;;;;;;;224.85;60.17;;;;;;;;;;4972659;28;20172;-49
2023/10/19 01:28:16;;;;;;;224.27;60.03;;;;;;;;;;4976456;28;20186;-48
2023/10/19 01:30:44;;;;;;;228.27;64.85;;;;;;;;;;4976408;28;20393;-49
2023/10/19 01:33:13;;;;;;;225.13;59.25;;;;;;;;;;4976027;28;20169;-48
2023/10/19 01:38:25;;;;;;;224.55;59.17;;;;;;;;;;4976491;28;20550;-49
2023/10/19 01:40:51;;;;;;;225.70;62.90;;;;;;;;;;4976145;28;20720;-48
2023/10/19 01:43:36;;;;;;;224.10;59.10;;;;;;;;;;4975761;28;20557;-49
2023/10/19 01:46:07;;;;;;;225.27;60.33;;;;;;;;;;4976120;28;20397;-49
2023/10/19 01:48:33;;;;;;;224.45;59.33;;;;;;;;;;4976043;28;20415;-48
2023/10/19 01:51:06;;;;;;;227.23;62.23;;;;;;;;;;4975879;28;20169;-48
2023/10/19 01:53:34;;;;;;;227.13;59.17;;;;;;;;;;4975554;28;20464;-49
2023/10/19 01:56:00;;;;;;;225.30;61.43;;;;;;;;;;4976193;28;20220;-48
2023/10/19 01:58:26;;;;;;;222.67;58.60;;;;;;;;;;4975783;28;20408;-48
2023/10/19 02:00:55;;;;;;;225.60;61.78;;;;;;;;;;4975789;28;20419;-49
2023/10/19 02:03:22;;;;;;;225.97;60.60;;;;;;;;;;4975512;28;20195;-48
2023/10/19 02:05:50;;;;;;;227.90;61.97;;;;;;;;;;4975468;28;20534;-47
2023/10/19 02:08:25;;;;;;;227.67;64.73;;;;;;;;;;4975925;28;20409;-48
2023/10/19 02:10:51;;;;;;;226.20;60.53;;;;;;;;;;4975592;28;20405;-49
2023/10/19 02:13:17;;;;;;;223.57;58.20;;;;;;;;;;4975284;28;20598;-48
2023/10/19 02:15:44;;;;;;;225.97;58.57;;;;;;;;;;4975548;28;20416;-48
2023/10/19 02:18:10;;;;;;;225.67;60.10;;;;;;;;;;4975404;28;20397;-49
2023/10/19 02:20:41;;;;;;;223.93;58.80;;;;;;;;;;4975572;28;20389;-49
2023/10/19 02:23:07;;;;;;;222.80;58.73;;;;;;;;;;4975240;28;20321;-48
2023/10/19 02:25:37;;;;;;;225.53;60.93;;;;;;;;;;4975324;28;20853;-49
2023/10/19 02:28:09;;;;;;;223.97;58.63;;;;;;;;;;4975333;28;20394;-48
2023/10/19 02:30:35;;;;;;;227.25;61.88;;;;;;;;;;4975243;28;20910;-47
2023/10/19 02:33:03;;;;;;;226.57;62.00;;;;;;;;;;4974860;28;20185;-48
2023/10/19 02:35:29;;;;;;;225.73;62.77;;;;;;;;;;4975155;28;20416;-48
2023/10/19 02:37:55;;;;;;;226.17;62.90;;;;;;;;;;4975100;28;20432;-49
2023/10/19 02:40:24;;;;;;;229.60;67.27;;;;;;;;;;4975028;28;20439;-49
2023/10/19 02:42:53;;;;;;;232.73;64.83;;;;;;;;;;4974744;28;20408;-49
2023/10/19 02:45:19;;;;;;;224.73;59.83;;;;;;;;;;4974945;28;20431;-48
2023/10/19 02:47:46;;;;;;;223.47;58.17;;;;;;;;;;4974999;28;20507;-48
2023/10/19 02:50:22;;;;;;;222.23;58.20;;;;;;;;;;4974939;28;20466;-49
2023/10/19 02:52:49;;;;;;;228.63;66.10;;;;;;;;;;4974709;28;20432;-48
2023/10/19 02:55:17;;;;;;;226.70;62.87;;;;;;;;;;4974690;28;21011;-48
2023/10/19 02:57:46;;;;;;;227.70;63.47;;;;;;;;;;4974650;28;20454;-48
2023/10/19 03:00:14;;;;;;;223.87;59.60;;;;;;;;;;4974816;28;20412;-48
2023/10/19 03:02:40;;;;;;;225.32;61.28;;;;;;;;;;4974804;28;20394;-48
2023/10/19 03:05:17;;;;;;;226.40;61.57;;;;;;;;;;4974558;28;20265;-48
2023/10/19 03:07:44;;;;;;;227.77;63.40;;;;;;;;;;4973654;28;20460;-48
2023/10/19 03:13:14;;;;;;;223.43;59.17;;;;;;;;;;4932449;29;20470;-49
2023/10/19 03:15:42;;;;;;;224.70;59.97;;;;;;;;;;4965927;28;20440;-48
2023/10/19 03:18:08;;;;;;;225.50;63.17;;;;;;;;;;4973527;28;20188;-49
2023/10/19 03:20:38;;;;;;;227.47;63.17;;;;;;;;;;4973398;28;20401;-49
2023/10/19 03:23:05;;;;;;;230.47;67.03;;;;;;;;;;4973197;28;20417;-48
2023/10/19 03:28:35;;;;;;;226.07;61.00;;;;;;;;;;4932859;29;20493;-47
2023/10/19 03:31:01;;;;;;;226.73;62.57;;;;;;;;;;4932461;29;20459;-49
2023/10/19 03:33:28;;;;;;;226.07;60.47;;;;;;;;;;4951025;28;20984;-48
2023/10/19 03:35:54;;;;;;;234.97;67.50;;;;;;;;;;4973107;28;20420;-48
2023/10/19 03:38:22;;;;;;;227.77;63.10;;;;;;;;;;4976252;28;20521;-48
2023/10/19 03:40:52;;;;;;;226.07;62.50;;;;;;;;;;4972968;28;20409;-49
2023/10/19 03:43:26;;;;;;;226.60;63.17;;;;;;;;;;4972613;28;20482;-48
2023/10/19 03:45:53;;;;;;;225.17;61.27;;;;;;;;;;4965910;28;20431;-49
2023/10/19 03:48:26;;;;;;;228.67;66.07;;;;;;;;;;4972832;28;20920;-49
2023/10/19 03:50:55;;;;;;;231.07;67.27;;;;;;;;;;4972109;28;20447;-48
2023/10/19 03:53:21;;;;;;;227.60;64.33;;;;;;;;;;4972752;28;20777;-48
2023/10/19 03:55:47;;;;;;;225.93;62.07;;;;;;;;;;4972603;28;20443;-49
2023/10/19 03:58:13;;;;;;;227.87;64.60;;;;;;;;;;4972598;28;20427;-49
2023/10/19 04:00:39;;;;;;;230.13;68.73;;;;;;;;;;4972632;28;20417;-48
2023/10/19 04:03:05;;;;;;;228.67;64.57;;;;;;;;;;4972199;28;20423;-48
2023/10/19 04:05:37;;;;;;;227.93;65.63;;;;;;;;;;4935537;28;1073794;-49
2023/10/19 04:08:12;;;;;;;225.80;64.60;;;;;;;;;;4973457;28;20780;-49
2023/10/19 04:10:38;;;;;;;226.37;62.90;;;;;;;;;;4972408;28;20531;-49
2023/10/19 04:13:09;;;;;;;233.30;71.30;;;;;;;;;;4972860;28;20983;-49
2023/10/19 04:15:36;;;;;;;228.07;65.17;;;;;;;;;;4973225;28;20460;-47
2023/10/19 04:18:02;;;;;;;227.30;63.73;;;;;;;;;;4973765;28;20412;-47
2023/10/19 04:20:29;;;;;;;228.27;64.73;;;;;;;;;;4973056;28;20420;-48
2023/10/19 04:23:06;;;;;;;229.37;62.87;;;;;;;;;;4972778;28;20409;-48
2023/10/19 04:25:32;;;;;;;228.90;66.50;;;;;;;;;;4972981;28;20450;-48
2023/10/19 04:27:58;;;;;;;226.03;63.40;;;;;;;;;;4973291;28;20484;-48
2023/10/19 04:30:24;;;;;;;227.90;65.50;;;;;;;;;;4973049;28;20495;-48
2023/10/19 04:32:52;;;;;;;235.23;70.27;;;;;;;;;;4972628;28;20916;-48
2023/10/19 04:35:21;;;;;;;228.57;65.37;;;;;;;;;;4972782;28;20460;-47
2023/10/19 04:37:51;;;;;;;229.97;68.67;;;;;;;;;;4966842;28;20444;-47
2023/10/19 04:40:18;;;;;;;226.83;61.93;;;;;;;;;;4973026;28;20405;-49
2023/10/19 04:42:44;;;;;;;225.27;61.33;;;;;;;;;;4972606;28;20469;-47
2023/10/19 04:45:11;;;;;;;226.00;64.27;;;;;;;;;;4972687;28;20673;-47
2023/10/19 04:47:37;;;;;;;226.67;62.77;;;;;;;;;;4972775;28;20409;-48
2023/10/19 04:50:04;;;;;;;224.90;61.03;;;;;;;;;;4972814;28;20535;-49
2023/10/19 04:52:30;;;;;;;228.87;66.30;;;;;;;;;;4972619;28;20839;-48
2023/10/19 04:54:56;;;;;;;228.87;66.33;;;;;;;;;;4972471;28;20519;-48
2023/10/19 04:57:22;;;;;;;226.50;64.20;;;;;;;;;;4972697;28;20416;-48
2023/10/19 04:59:48;;;;;;;227.63;64.97;;;;;;;;;;4972707;28;20405;-48
2023/10/19 05:02:14;;;;;;;223.87;60.20;;;;;;;;;;4974578;28;20412;-48
2023/10/19 05:04:43;;;;;;;227.63;64.40;;;;;;;;;;4976125;28;20445;-49
2023/10/19 05:07:12;;;;;;;229.33;67.77;;;;;;;;;;4976514;28;20502;-48
2023/10/19 05:09:41;;;;;;;224.43;59.33;;;;;;;;;;4976923;28;20841;-48
2023/10/19 05:12:11;;;;;;;227.53;64.03;;;;;;;;;;4976394;28;20421;-48
2023/10/19 05:14:37;;;;;;;228.80;66.00;;;;;;;;;;4976077;28;20841;-48
2023/10/19 05:17:07;;;;;;;228.70;66.77;;;;;;;;;;4976382;28;20409;-48
2023/10/19 05:19:33;;;;;;;225.47;60.90;;;;;;;;;;4976273;28;20417;-47
2023/10/19 05:22:02;;;;;;;229.97;67.40;;;;;;;;;;4976312;28;20463;-48
2023/10/19 05:24:29;;;;;;;230.67;68.00;;;;;;;;;;4975912;28;20432;-48
2023/10/19 05:26:56;;;;;;;226.17;63.57;;;;;;;;;;4976263;28;20415;-48
2023/10/19 05:29:22;;;;;;;223.53;60.40;;;;;;;;;;4976211;28;20932;-47
2023/10/19 05:31:53;;;;;;;227.43;64.97;;;;;;;;;;4976043;28;20419;-48
2023/10/19 05:34:19;;;;;;;225.67;63.50;;;;;;;;;;4975860;28;20475;-48
2023/10/19 05:36:48;;;;;;;225.67;60.37;;;;;;;;;;4971401;28;20463;-47
2023/10/19 05:39:14;;;;;;;228.03;66.13;;;;;;;;;;4976162;28;20759;-48
2023/10/19 05:41:40;;;;;;;225.40;63.30;;;;;;;;;;4976082;28;20536;-48
2023/10/19 05:44:06;;;;;;;230.03;67.83;;;;;;;;;;4975761;28;20440;-47
2023/10/19 05:46:32;;;;;;;227.60;63.33;;;;;;;;;;4975922;28;20412;-48
2023/10/19 05:48:58;;;;;;;227.10;63.37;;;;;;;;;;4976050;28;20419;-48
2023/10/19 05:51:24;;;;;;;224.77;61.87;;;;;;;;;;4975954;28;20421;-47
2023/10/19 05:54:01;;;;;;;226.70;64.27;;;;;;;;;;4975491;28;20468;-48
2023/10/19 05:56:27;;;;;;;223.60;60.43;;;;;;;;;;4976067;28;20406;-47
2023/10/19 05:58:53;;;;;;;225.30;62.57;;;;;;;;;;4975769;28;20412;-48
2023/10/19 06:01:19;;;;;;;224.73;62.57;;;;;;;;;;4975815;28;20549;-48
2023/10/19 06:03:45;;;;;;;227.63;65.50;;;;;;;;;;4975476;28;20773;-48
2023/10/19 06:06:12;;;;;;;228.43;67.80;;;;;;;;;;4975650;28;20460;-49
2023/10/19 06:08:38;;;;;;;228.43;68.20;;;;;;;;;;4975807;28;20804;-47
2023/10/19 06:11:04;;;;;;;228.80;66.53;;;;;;;;;;4975712;28;20848;-47
2023/10/19 06:13:30;;;;;;;227.50;65.73;;;;;;;;;;4974656;28;21003;-48
2023/10/19 06:15:56;;;;;;;224.60;63.27;;;;;;;;;;4975546;28;20404;-49
2023/10/19 06:18:22;;;;;;;222.73;60.80;;;;;;;;;;4975534;28;20894;-48
2023/10/19 06:20:50;;;;;;;224.50;60.33;;;;;;;;;;4975535;28;20960;-47
2023/10/19 06:23:17;;;;;;;224.30;65.27;;;;;;;;;;4975195;28;20432;-48
2023/10/19 06:25:43;;;;;;;223.52;61.35;;;;;;;;;;4975392;28;20705;-48
2023/10/19 06:28:11;;;;;;;224.40;62.17;;;;;;;;;;4975206;28;20260;-48
2023/10/19 06:30:37;;;;;;;225.63;64.37;;;;;;;;;;4975379;28;20483;-47
2023/10/19 06:33:03;;;;;;;228.37;64.70;;;;;;;;;;4975077;28;20471;-48
2023/10/19 06:35:31;;;;;;;226.53;62.33;;;;;;;;;;4974564;28;20464;-47
2023/10/19 06:37:58;;;;;;;223.63;61.13;;;;;;;;;;4975251;28;20452;-48
2023/10/19 06:40:26;;;;;;;229.47;67.93;;;;;;;;;;4974683;28;20419;-46
2023/10/19 06:42:52;;;;;;;234.10;73.00;;;;;;;;;;4974417;28;20689;-48
2023/10/19 06:45:18;;;;;;;222.80;60.77;;;;;;;;;;4974635;28;20440;-48
2023/10/19 06:47:45;;;;;;;226.50;66.10;;;;;;;;;;4964524;28;20421;-47
2023/10/19 06:50:12;;;;;;;227.77;64.60;;;;;;;;;;4974256;28;20425;-47
2023/10/19 06:52:39;;;;;;;227.30;63.55;;;;;;;;;;4974371;28;20417;-47
2023/10/19 06:55:07;;;;;;;227.83;64.83;;;;;;;;;;4973974;28;20209;-48
2023/10/19 06:57:33;;;;;;;224.33;61.27;;;;;;;;;;4973800;28;20705;-46
2023/10/19 07:00:03;;;;;;;228.17;69.30;;;;;;;;;;4973563;28;20424;-47
2023/10/19 07:02:33;;;;;;;228.27;65.73;;;;;;;;;;4973195;28;20420;-47
2023/10/19 07:04:59;;;;;;;222.70;59.87;;;;;;;;;;4973527;28;20433;-47
2023/10/19 07:07:25;;;;;;;225.10;62.43;;;;;;;;;;4973550;28;20428;-47
2023/10/19 07:09:52;;;;;;;226.40;64.37;;;;;;;;;;4973157;28;20505;-48
2023/10/19 07:12:18;;;;;;;225.77;61.20;;;;;;;;;;4973502;28;20417;-48
2023/10/19 07:14:44;;;;;;;226.87;64.97;;;;;;;;;;4973347;28;20476;-47
2023/10/19 07:17:10;;;;;;;228.67;67.57;;;;;;;;;;4974247;28;20463;-49
2023/10/19 07:19:37;;;;;;;225.43;63.33;;;;;;;;;;4974109;28;20910;-47
2023/10/19 07:22:04;;;;;;;227.27;67.70;;;;;;;;;;4974063;28;20712;-48
2023/10/19 07:24:30;;;;;;;231.10;70.40;;;;;;;;;;4972909;28;20523;-49
2023/10/19 07:27:07;;;;;;;224.27;63.87;;;;;;;;;;4974160;28;20457;-48
2023/10/19 07:29:35;;;;;;;228.43;68.40;;;;;;;;;;4972467;28;20504;-48
2023/10/19 07:32:02;;;;;;;228.77;68.23;;;;;;;;;;4973866;28;20540;-48
2023/10/19 07:34:33;;;;;;;224.50;61.27;;;;;;;;;;4973430;28;20527;-47
2023/10/19 07:36:59;;;;;;;229.37;68.50;;;;;;;;;;4973865;28;20424;-47
2023/10/19 07:39:26;;;;;;;224.23;61.90;;;;;;;;;;4973741;28;20487;-48
2023/10/19 07:41:52;;;;;;;229.77;69.47;;;;;;;;;;4973685;28;20424;-48
2023/10/19 07:44:18;;;;;;;230.73;68.47;;;;;;;;;;4973748;28;20499;-48
2023/10/19 07:46:44;;;;;;;225.67;62.40;;;;;;;;;;4973668;28;20523;-47
2023/10/19 07:49:14;;;;;;;230.30;66.60;;;;;;;;;;4973719;28;20408;-48
2023/10/19 07:51:41;;;;;;;225.17;63.80;;;;;;;;;;4973523;28;20421;-48
2023/10/19 07:54:07;;;;;;;228.97;67.37;;;;;;;;;;4973144;28;20472;-47
2023/10/19 07:56:33;;;;;;;227.47;66.70;;;;;;;;;;4973584;28;20409;-48
2023/10/19 07:59:00;;;;;;;228.37;67.23;;;;;;;;;;4973464;28;20424;-48
2023/10/19 08:01:26;;;;;;;233.90;75.60;;;;;;;;;;4973505;28;20417;-47
2023/10/19 08:03:52;;;;;;;229.00;66.23;;;;;;;;;;4972863;28;20451;-48
2023/10/19 08:06:18;;;;;;;232.00;72.63;;;;;;;;;;4973256;28;20467;-48
2023/10/19 08:08:44;;;;;;;230.20;66.30;;;;;;;;;;4973346;28;20408;-48
2023/10/19 08:11:10;;;;;;;231.10;67.57;;;;;;;;;;4972986;28;20398;-48
2023/10/19 08:13:36;;;;;;;225.63;61.47;;;;;;;;;;4972783;28;20449;-48
2023/10/19 08:16:02;;;;;;;225.77;62.60;;;;;;;;;;4973422;28;20408;-47
2023/10/19 08:18:30;;;;;;;228.23;65.03;;;;;;;;;;4973107;28;20410;-48
2023/10/19 08:20:56;;;;;;;228.87;65.20;;;;;;;;;;4973216;28;20517;-48
2023/10/19 08:23:27;;;;;;;225.87;61.17;;;;;;;;;;4972609;28;20937;-48
2023/10/19 08:25:53;;;;;;;226.97;62.57;;;;;;;;;;4974780;28;20502;-47
2023/10/19 08:28:19;;;;;;;227.07;63.50;;;;;;;;;;4973627;28;20408;-48
2023/10/19 08:30:56;;;;;;;226.60;62.93;;;;;;;;;;4973144;28;20400;-48
2023/10/19 08:33:22;;;;;;;228.73;67.53;;;;;;;;;;4972722;28;21115;-48
2023/10/19 08:35:48;;;;;;;227.30;64.87;;;;;;;;;;4972811;28;20438;-49
2023/10/19 08:38:14;;;;;;;232.87;69.77;;;;;;;;;;4972035;28;20498;-47
2023/10/19 08:40:40;;;;;;;231.20;67.87;;;;;;;;;;4971072;28;20429;-49
2023/10/19 08:43:07;;;;;;;233.47;68.37;;;;;;;;;;4972102;28;20412;-48
2023/10/19 08:45:34;;;;;;;230.30;65.70;;;;;;;;;;4971735;28;20782;-48
2023/10/19 08:48:01;;;;;;;231.73;69.30;;;;;;;;;;4972062;28;20892;-48
2023/10/19 08:50:28;;;;;;;227.17;65.40;;;;;;;;;;4973022;28;20415;-47
2023/10/19 08:52:55;;;;;;;233.80;68.93;;;;;;;;;;4972427;28;20954;-48
2023/10/19 08:55:21;;;;;;;230.47;67.70;;;;;;;;;;4972842;28;20464;-48
2023/10/19 08:57:50;;;;;;;230.13;68.17;;;;;;;;;;4972923;28;20403;-47
2023/10/19 09:00:18;;;;;;;234.00;70.93;;;;;;;;;;4972736;28;20418;-48
2023/10/19 09:02:44;;;;;;;231.40;69.63;;;;;;;;;;4972663;28;20797;-48
2023/10/19 09:05:19;;;;;;;231.53;72.40;;;;;;;;;;4972838;28;20433;-48
2023/10/19 09:07:47;;;;;;;229.50;65.10;;;;;;;;;;4972953;28;20522;-48
2023/10/19 09:10:16;;;;;;;230.87;70.50;;;;;;;;;;4972841;28;20911;-48
2023/10/19 09:12:42;;;;;;;231.70;70.37;;;;;;;;;;4972439;28;20419;-49
2023/10/19 09:15:32;;;;;;;231.47;70.97;;;;;;;;;;4972579;28;20490;-48
2023/10/19 09:17:59;;;;;;;243.10;77.43;;;;;;;;;;4971238;28;20436;-48
2023/10/19 09:20:28;;;;;;;235.53;75.60;;;;;;;;;;4967743;28;20409;-48
2023/10/19 09:22:57;;;;;;;238.80;77.40;;;;;;;;;;4970545;28;20409;-48
2023/10/19 09:25:24;;;;;;;234.07;71.17;;;;;;;;;;4971204;28;20419;-48
2023/10/19 09:27:51;;;;;;;230.90;71.10;;;;;;;;;;4972373;28;20413;-48
2023/10/19 09:30:20;;;;;;;232.37;69.77;;;;;;;;;;4970876;28;20416;-48
2023/10/19 09:32:47;;;;;;;235.50;75.57;;;;;;;;;;4972443;28;20885;-47
2023/10/19 09:35:19;;;;;;;230.53;70.47;;;;;;;;;;4972481;28;20459;-48
2023/10/19 09:37:45;;;;;;;232.90;73.23;;;;;;;;;;4973001;28;20396;-47
2023/10/19 09:40:12;;;;;;;229.73;69.60;;;;;;;;;;4972619;28;20424;-48
2023/10/19 09:42:42;;;;;;;230.67;72.37;;;;;;;;;;4972401;28;20944;-47
2023/10/19 09:45:08;;;;;;;231.53;73.77;;;;;;;;;;4972431;28;20437;-48
2023/10/19 09:47:39;;;;;;;231.87;73.57;;;;;;;;;;4973494;28;20417;-47
2023/10/19 09:50:10;;;;;;;229.40;67.97;;;;;;;;;;4975922;28;20465;-48
2023/10/19 09:52:37;;;;;;;236.17;79.90;;;;;;;;;;4976002;28;20404;-47
2023/10/19 09:55:23;;;;;;;230.47;70.53;;;;;;;;;;4975735;28;20466;-48
2023/10/19 09:57:59;;;;;;;231.37;73.23;;;;;;;;;;4976083;28;20784;-48
2023/10/19 10:00:25;;;;;;;230.67;71.30;;;;;;;;;;4975913;28;20444;-48
2023/10/19 10:02:51;;;;;;;237.90;78.47;;;;;;;;;;4975513;28;20458;-47
2023/10/19 10:05:36;;;;;;;232.57;71.77;;;;;;;;;;4975932;28;20509;-48
2023/10/19 10:08:17;;;;;;;231.47;72.70;;;;;;;;;;4975798;28;20896;-47
2023/10/19 10:10:47;;;;;;;234.30;76.87;;;;;;;;;;4975452;28;20414;-48
2023/10/19 10:13:26;;;;;;;233.87;76.00;;;;;;;;;;4975724;28;20607;-48
2023/10/19 10:15:54;;;;;;;234.17;76.67;;;;;;;;;;4975712;28;20799;-48
2023/10/19 10:18:20;;;;;;;234.60;77.70;;;;;;;;;;4974320;28;20455;-48
2023/10/19 10:20:47;;;;;;;238.67;84.03;;;;;;;;;;4976267;28;20443;-48
2023/10/19 10:23:31;;;;;;;234.13;76.07;;;;;;;;;;4975678;28;20402;-48
2023/10/19 10:25:58;;;;;;;232.17;75.57;;;;;;;;;;4975494;28;20453;-47
2023/10/19 10:28:24;;;;;;;237.37;83.13;;;;;;;;;;4975455;28;20404;-47
2023/10/19 10:31:09;;;;;;;237.27;78.23;;;;;;;;;;4974992;28;20901;-48
2023/10/19 10:33:42;;;;;;;236.33;78.63;;;;;;;;;;4975236;28;20458;-49
2023/10/19 10:36:10;;;;;;;239.50;83.03;;;;;;;;;;4975135;28;20444;-48
2023/10/19 10:38:36;;;;;;;238.60;83.17;;;;;;;;;;4975283;28;20833;-48
2023/10/19 10:41:02;;;;;;;241.27;89.27;;;;;;;;;;4975194;28;20397;-49
2023/10/19 10:43:28;;;;;;;245.27;99.13;;;;;;;;;;4975013;28;20538;-48
2023/10/19 10:46:10;;;;;;;240.13;92.23;;;;;;;;;;4975001;28;20428;-47
2023/10/19 10:48:41;;;;;;;246.57;104.77;;;;;;;;;;4975062;28;20412;-48
2023/10/19 10:51:24;;;;;;;245.67;102.80;;;;;;;;;;4975453;28;20405;-49
2023/10/19 10:53:54;;;;;;;247.90;107.43;;;;;;;;;;4974422;28;20455;-47
2023/10/19 10:56:21;;;;;;;251.10;108.93;;;;;;;;;;4974876;28;20894;-48
2023/10/19 10:58:47;;;;;;;251.43;111.73;;;;;;;;;;4973933;28;20400;-48
2023/10/19 11:01:14;;;;;;;252.80;113.07;;;;;;;;;;4974980;28;20397;-48
2023/10/19 11:03:43;;;;;;;257.10;117.57;;;;;;;;;;4974432;28;20462;-48
2023/10/19 11:06:13;;;;;;;255.97;119.70;;;;;;;;;;4974669;28;20421;-48
2023/10/19 11:08:39;;;;;;;257.67;125.50;;;;;;;;;;4974649;28;20409;-49
2023/10/19 11:11:05;;;;;;;248.77;109.73;;;;;;;;;;4974707;28;20409;-48
2023/10/19 11:13:33;;;;;;;252.47;117.77;;;;;;;;;;4974110;28;20413;-49
2023/10/19 11:16:01;;;;;;;251.13;110.97;;;;;;;;;;4974582;28;20881;-49
2023/10/19 11:18:35;;;;;;;254.43;119.40;;;;;;;;;;4974514;28;20417;-48
2023/10/19 11:21:07;;;;;;;253.03;114.77;;;;;;;;;;4967981;28;20452;-48
2023/10/19 11:23:40;;;;;;;256.60;119.50;;;;;;;;;;4972125;28;20408;-48
2023/10/19 11:26:06;;;;;;;250.97;106.87;;;;;;;;;;4974308;28;20400;-48
2023/10/19 11:28:33;;;;;;;251.40;108.17;;;;;;;;;;4974182;28;20955;-48
2023/10/19 11:31:37;;;;;;;250.60;107.73;;;;;;;;;;4974267;28;20910;-48
2023/10/19 11:34:04;;;;;;;248.97;105.70;;;;;;;;;;4943940;28;20482;-48
2023/10/19 11:36:30;;;;;;;251.63;108.00;;;;;;;;;;4974034;28;20824;-47
2023/10/19 11:38:57;;;;;;;246.13;98.80;;;;;;;;;;4974028;28;20468;-48
2023/10/19 11:41:23;;;;;;;247.50;101.83;;;;;;;;;;4974233;28;20401;-48
2023/10/19 11:43:49;;;;;;;246.60;97.23;;;;;;;;;;4973520;28;20507;-48
2023/10/19 11:46:18;;;;;;;245.03;96.90;;;;;;;;;;4974021;28;20885;-48
2023/10/19 11:48:44;;;;;;;245.47;94.83;;;;;;;;;;4973857;28;20409;-47
2023/10/19 11:51:14;;;;;;;250.87;106.23;;;;;;;;;;4973844;28;20487;-48
2023/10/19 11:53:41;;;;;;;248.10;98.90;;;;;;;;;;4973419;28;20456;-48
2023/10/19 11:56:09;;;;;;;249.37;103.00;;;;;;;;;;4973846;28;20413;-48
2023/10/19 11:58:35;;;;;;;248.90;104.53;;;;;;;;;;4973711;28;20773;-49
2023/10/19 12:01:08;;;;;;;247.27;102.07;;;;;;;;;;4973813;28;20877;-48
2023/10/19 12:03:36;;;;;;;251.50;110.93;;;;;;;;;;4973214;28;20408;-48
2023/10/19 12:06:04;;;;;;;249.97;105.90;;;;;;;;;;4973695;28;20421;-48
2023/10/19 12:08:32;;;;;;;246.63;104.87;;;;;;;;;;4973645;28;20505;-48
2023/10/19 12:10:58;;;;;;;250.30;108.47;;;;;;;;;;4973306;28;20437;-49
2023/10/19 12:13:24;;;;;;;247.27;106.23;;;;;;;;;;4973160;28;20407;-49
2023/10/19 12:15:54;;;;;;;248.10;105.77;;;;;;;;;;4973342;28;20415;-48
2023/10/19 12:18:20;;;;;;;250.70;110.37;;;;;;;;;;4973514;28;20464;-47
2023/10/19 12:20:47;;;;;;;249.97;108.97;;;;;;;;;;4973458;28;20402;-48
2023/10/19 12:23:13;;;;;;;248.17;106.93;;;;;;;;;;4972999;28;20403;-48
2023/10/19 12:25:39;;;;;;;248.07;103.73;;;;;;;;;;4973295;28;21044;-48
2023/10/19 12:28:05;;;;;;;243.87;96.93;;;;;;;;;;4973229;28;20408;-49
2023/10/19 12:30:38;;;;;;;246.37;100.00;;;;;;;;;;4973189;28;20411;-48
2023/10/19 12:33:11;;;;;;;250.13;103.50;;;;;;;;;;4973013;28;20399;-48
2023/10/19 12:35:51;;;;;;;242.40;94.70;;;;;;;;;;4973086;28;20461;-48
2023/10/19 12:38:19;;;;;;;246.90;98.33;;;;;;;;;;4973138;28;20450;-48
2023/10/19 12:40:46;;;;;;;246.13;97.37;;;;;;;;;;4973072;28;20775;-48
2023/10/19 12:43:13;;;;;;;245.13;97.23;;;;;;;;;;4972724;28;20405;-48
2023/10/19 12:45:39;;;;;;;247.93;99.97;;;;;;;;;;4973072;28;20432;-48
2023/10/19 12:48:06;;;;;;;243.20;90.80;;;;;;;;;;4973176;28;20437;-47
2023/10/19 12:50:32;;;;;;;246.43;95.23;;;;;;;;;;4973392;28;20405;-48
2023/10/19 12:52:58;;;;;;;253.40;104.73;;;;;;;;;;4972668;28;20397;-48
2023/10/19 12:55:27;;;;;;;247.57;94.30;;;;;;;;;;4972881;28;20968;-48
2023/10/19 12:58:06;;;;;;;248.43;96.57;;;;;;;;;;4973049;28;20393;-47
2023/10/19 13:00:43;;;;;;;245.83;94.03;;;;;;;;;;4973192;28;20396;-47
2023/10/19 13:03:13;;;;;;;242.63;85.63;;;;;;;;;;4972775;28;20713;-48
2023/10/19 13:05:39;;;;;;;247.87;94.33;;;;;;;;;;4972707;28;20429;-47
2023/10/19 13:08:06;;;;;;;243.30;89.37;;;;;;;;;;4972820;28;20838;-47
2023/10/19 13:10:33;;;;;;;242.73;87.87;;;;;;;;;;4972920;28;20401;-47
2023/10/19 13:13:03;;;;;;;247.97;95.33;;;;;;;;;;4972663;28;20417;-48
2023/10/19 13:15:30;;;;;;;242.33;86.77;;;;;;;;;;4972690;28;20461;-48
2023/10/19 13:17:58;;;;;;;244.47;89.87;;;;;;;;;;4972931;28;20410;-47
2023/10/19 13:20:25;;;;;;;244.07;88.73;;;;;;;;;;4972875;28;20423;-47
2023/10/19 13:22:51;;;;;;;244.37;86.20;;;;;;;;;;4973826;28;20416;-48
2023/10/19 13:25:17;;;;;;;242.07;86.90;;;;;;;;;;4976496;28;20423;-47
2023/10/19 13:27:45;;;;;;;238.80;81.60;;;;;;;;;;4976547;28;20405;-47
2023/10/19 13:30:11;;;;;;;242.07;87.03;;;;;;;;;;4976630;28;20740;-48
2023/10/19 13:32:38;;;;;;;241.70;84.97;;;;;;;;;;4976325;28;20420;-48
2023/10/19 13:35:07;;;;;;;241.47;88.20;;;;;;;;;;4976022;28;20516;-47
2023/10/19 13:37:33;;;;;;;242.67;87.73;;;;;;;;;;4976382;28;20825;-47
2023/10/19 13:39:59;;;;;;;241.83;87.10;;;;;;;;;;4976298;28;20433;-47
2023/10/19 13:42:25;;;;;;;239.33;81.93;;;;;;;;;;4976153;28;20956;-47
2023/10/19 13:44:51;;;;;;;239.97;84.50;;;;;;;;;;4976391;28;20863;-47
2023/10/19 13:47:18;;;;;;;239.93;83.00;;;;;;;;;;4975462;28;20518;-49
2023/10/19 13:49:43;;;;;;;244.50;88.90;;;;;;;;;;4973991;28;20818;-49
2023/10/19 13:52:09;;;;;;;242.57;87.37;;;;;;;;;;4975998;28;20427;-47
2023/10/19 13:54:36;;;;;;;239.43;80.27;;;;;;;;;;4974757;28;20474;-47
2023/10/19 13:57:02;;;;;;;239.93;81.27;;;;;;;;;;4975964;28;20819;-47
2023/10/19 13:59:33;;;;;;;241.60;84.17;;;;;;;;;;4975689;28;20404;-48
2023/10/19 14:01:59;;;;;;;240.50;80.63;;;;;;;;;;4975871;28;20415;-48
2023/10/19 14:04:25;;;;;;;243.53;85.17;;;;;;;;;;4975430;28;20467;-48
2023/10/19 14:06:51;;;;;;;238.40;77.87;;;;;;;;;;4975536;28;20586;-48
2023/10/19 14:09:17;;;;;;;238.90;79.37;;;;;;;;;;4975743;28;20506;-48
2023/10/19 14:11:47;;;;;;;240.30;81.27;;;;;;;;;;4975693;28;20422;-48
2023/10/19 14:14:13;;;;;;;239.77;80.53;;;;;;;;;;4975225;28;20474;-48
2023/10/19 14:16:39;;;;;;;237.00;76.70;;;;;;;;;;4975570;28;20404;-48
2023/10/19 14:19:05;;;;;;;239.30;78.30;;;;;;;;;;4975307;28;20905;-48
2023/10/19 14:21:32;;;;;;;238.60;78.90;;;;;;;;;;4975627;28;20407;-47
2023/10/19 14:23:58;;;;;;;239.13;77.23;;;;;;;;;;4975295;28;20905;-48
2023/10/19 14:26:24;;;;;;;240.00;77.97;;;;;;;;;;4973017;28;20487;-48
2023/10/19 14:28:50;;;;;;;236.50;74.33;;;;;;;;;;4971884;28;20433;-48